Time;durP1;ratioP1;P1;durP2;ratioP2;P2;SDS_P1;SDS_P2;PMS_P1;PMS_P2;Temp;Humidity;BMP_temperature;BMP_pressure;BME280_temperature;BME280_humidity;BME280_pressure;Samples;Min_cycle;Max_cycle;Signal;HPM_P1;HPM_P2
2021/11/08 00:01:57;;;;;;;4.60;2.33;;;16.10;99.10;;;16.58;50.49;101575.97;4967262;27;97243;-43
2021/11/08 00:04:23;;;;;;;4.83;2.23;;;16.10;98.80;;;16.55;50.83;101576.97;4962015;28;99814;-43
2021/11/08 00:06:52;;;;;;;7.80;2.63;;;16.00;99.40;;;16.55;50.64;101576.13;5001482;27;96907;-45
2021/11/08 00:09:19;;;;;;;8.47;3.30;;;16.00;99.50;;;16.54;50.63;101582.38;5014256;27;98315;-43
2021/11/08 00:11:45;;;;;;;6.33;2.80;;;16.00;98.80;;;16.56;50.47;101583.16;4995623;27;97865;-45
2021/11/08 00:14:17;;;;;;;11.43;3.77;;;16.00;99.00;;;16.55;50.58;101581.44;4991921;27;96812;-43
2021/11/08 00:21:49;;;;;;;7.07;2.37;;;15.90;99.70;;;16.49;50.96;101582.59;4995841;27;96810;-45
2021/11/08 00:24:22;;;;;;;4.13;2.47;;;15.90;99.50;;;16.48;50.88;101579.97;5000648;27;99219;-42
2021/11/08 00:26:49;;;;;;;6.80;2.37;;;15.80;99.30;;;16.42;50.91;101577.63;4997647;27;97682;-45
2021/11/08 00:29:15;;;;;;;6.53;2.40;;;15.80;99.40;;;16.41;51.28;101584.75;4989581;27;97404;-43
2021/11/08 00:31:40;;;;;;;6.97;2.93;;;15.70;99.40;;;16.38;51.01;101574.22;5013596;27;96858;-44
2021/11/08 00:34:07;;;;;;;5.07;2.13;;;15.70;99.70;;;16.36;51.06;101592.09;4994286;27;96908;-45
2021/11/08 00:36:33;;;;;;;5.63;2.50;;;15.60;99.70;;;16.34;51.35;101584.13;5002962;27;96495;-45
2021/11/08 00:38:58;;;;;;;2.87;1.93;;;15.60;99.70;;;16.31;51.62;101584.28;5005634;27;99750;-43
2021/11/08 00:41:24;;;;;;;5.87;2.40;;;15.60;99.90;;;16.32;51.50;101587.81;4996650;28;97033;-47
2021/11/08 00:43:50;;;;;;;8.00;2.47;;;15.60;99.80;;;16.30;51.44;101587.88;4997874;28;102355;-44
2021/11/08 00:46:16;;;;;;;6.50;3.00;;;15.60;99.90;;;16.29;51.73;101591.47;4994733;27;97740;-43
2021/11/08 00:48:43;;;;;;;5.07;2.30;;;15.60;99.80;;;16.28;51.83;101587.09;4998902;28;97676;-46
2021/11/08 00:51:08;;;;;;;5.97;2.57;;;15.50;99.90;;;16.29;51.55;101591.47;4991254;27;97265;-44
2021/11/08 00:53:35;;;;;;;4.87;2.23;;;15.60;99.90;;;16.28;51.62;101584.41;5011306;27;97224;-43
2021/11/08 00:56:06;;;;;;;7.97;3.20;;;15.60;99.90;;;16.30;51.52;101581.69;4995296;27;99151;-46
2021/11/08 00:58:38;;;;;;;5.93;2.70;;;15.60;99.90;;;16.32;51.62;101590.47;5008925;27;96850;-44
2021/11/08 01:01:08;;;;;;;3.67;1.90;;;15.60;99.90;;;16.31;51.63;101589.59;4994590;27;97259;-44
2021/11/08 01:03:40;;;;;;;3.50;2.10;;;15.60;99.90;;;16.32;51.66;101586.00;5008724;27;97256;-43
2021/11/08 01:06:08;;;;;;;4.07;2.10;;;15.60;99.90;;;16.35;51.47;101591.22;4991961;27;97049;-44
2021/11/08 01:08:35;;;;;;;4.57;2.27;;;15.70;99.90;;;16.37;51.59;101583.16;5006791;28;100104;-44
2021/11/08 01:11:01;;;;;;;6.73;2.87;;;15.70;99.90;;;16.39;51.52;101591.06;4997857;27;96725;-44
2021/11/08 01:13:28;;;;;;;4.23;2.60;;;15.80;99.80;;;16.38;51.38;101597.34;4995743;28;97202;-43
2021/11/08 01:15:55;;;;;;;4.90;2.50;;;15.70;99.80;;;16.34;51.63;101602.78;5011525;27;96696;-43
2021/11/08 01:18:22;;;;;;;7.27;3.13;;;15.60;99.90;;;16.32;51.69;101601.97;4984014;27;102623;-45
2021/11/08 01:20:49;;;;;;;3.87;1.97;;;15.60;99.90;;;16.31;51.78;101594.94;5021766;27;97253;-42
2021/11/08 01:23:18;;;;;;;9.37;3.17;;;15.50;99.90;;;16.25;51.85;101608.53;4992879;27;103525;-45
2021/11/08 01:25:53;;;;;;;5.57;2.43;;;15.50;99.90;;;16.24;51.89;101601.47;4999867;27;97608;-43
2021/11/08 01:28:20;;;;;;;5.40;2.07;;;15.50;99.90;;;16.22;52.03;101606.00;4991060;27;99680;-44
2021/11/08 01:30:47;;;;;;;4.33;2.40;;;15.40;99.90;;;16.21;51.71;101608.75;5013039;27;98477;-43
2021/11/08 01:33:17;;;;;;;3.93;2.43;;;15.50;99.90;;;16.23;51.78;101602.41;4995184;27;97171;-45
2021/11/08 01:35:45;;;;;;;5.40;2.50;;;15.50;99.90;;;16.20;52.15;101607.88;5001998;27;97625;-44
2021/11/08 01:38:25;;;;;;;4.33;2.00;;;15.40;99.90;;;16.20;52.09;101606.97;4994619;28;97927;-42
2021/11/08 01:40:52;;;;;;;5.07;2.03;;;15.40;99.90;;;16.21;52.12;101620.25;4999548;27;101481;-43
2021/11/08 01:43:20;;;;;;;5.00;2.17;;;15.40;99.90;;;16.22;52.15;101616.66;4999608;27;96916;-44
2021/11/08 01:45:46;;;;;;;5.47;2.63;;;15.50;99.90;;;16.20;51.97;101607.88;4998925;27;96969;-45
2021/11/08 01:48:13;;;;;;;3.50;1.83;;;15.50;99.90;;;16.22;52.05;101615.78;4998942;27;100232;-43
2021/11/08 01:50:41;;;;;;;6.73;3.30;;;15.50;99.90;;;16.24;51.73;101614.78;4996354;27;97675;-43
2021/11/08 01:53:07;;;;;;;5.37;2.63;;;15.60;99.90;;;16.24;51.91;101620.09;4994599;28;97105;-44
2021/11/08 01:55:34;;;;;;;2.57;1.90;;;15.60;99.90;;;16.26;52.09;101617.38;4996082;28;97318;-44
2021/11/08 01:58:00;;;;;;;5.30;2.43;;;15.60;99.90;;;16.22;51.83;101615.78;5000741;27;98436;-44
2021/11/08 02:00:28;;;;;;;7.20;3.40;;;15.50;99.90;;;16.22;51.59;101619.31;5012207;27;97320;-45
2021/11/08 02:02:54;;;;;;;5.47;2.93;;;15.50;99.90;;;16.23;52.07;101617.50;5027998;27;97598;-44
2021/11/08 02:05:21;;;;;;;6.60;3.40;;;15.50;99.90;;;16.22;51.83;101621.97;5014543;27;102838;-47
2021/11/08 02:07:48;;;;;;;4.77;2.20;;;15.50;99.90;;;16.21;52.16;101620.25;4997534;27;99993;-44
2021/11/08 02:10:17;;;;;;;4.00;1.93;;;15.50;99.90;;;16.23;51.98;101618.38;4996863;27;97240;-45
2021/11/08 02:12:44;;;;;;;5.53;2.30;;;15.50;99.90;;;16.25;51.79;101615.66;4998992;28;97401;-43
2021/11/08 02:15:18;;;;;;;4.30;2.57;;;15.60;99.90;;;16.28;51.98;101611.03;4994169;27;97708;-43
2021/11/08 02:17:47;;;;;;;3.80;1.97;;;15.60;99.90;;;16.27;51.88;101619.97;5015472;27;96867;-44
2021/11/08 02:20:30;;;;;;;5.93;2.40;;;15.60;99.90;;;16.30;51.71;101616.28;5011215;27;97157;-43
2021/11/08 02:23:01;;;;;;;5.03;2.20;;;15.60;99.90;;;16.32;52.05;101617.94;5015034;27;98253;-48
2021/11/08 02:25:30;;;;;;;4.17;2.00;;;15.60;99.90;;;16.32;52.04;101611.75;4995706;28;104766;-45
2021/11/08 02:27:57;;;;;;;5.30;2.30;;;15.70;99.90;;;16.34;52.06;101608.09;5012681;27;98366;-47
2021/11/08 02:30:28;;;;;;;5.03;2.73;;;15.70;99.90;;;16.38;51.67;101615.97;5008850;27;97004;-44
2021/11/08 02:32:56;;;;;;;3.77;2.03;;;15.80;99.90;;;16.35;51.65;101616.97;5002231;28;96930;-43
2021/11/08 02:35:23;;;;;;;5.30;2.67;;;15.70;99.90;;;16.38;51.74;101621.28;5009220;27;101717;-44
2021/11/08 02:37:50;;;;;;;4.03;2.03;;;15.60;99.90;;;16.36;51.81;101613.38;4998938;28;100146;-44
2021/11/08 02:40:22;;;;;;;4.90;2.30;;;15.70;99.90;;;16.38;51.77;101618.63;5017578;27;97154;-46
2021/11/08 02:42:51;;;;;;;5.50;2.40;;;15.70;99.90;;;16.39;51.99;101623.03;5012668;27;97002;-43
2021/11/08 02:45:24;;;;;;;8.37;2.90;;;15.70;99.90;;;16.40;51.67;101622.09;4991715;27;98402;-44
2021/11/08 02:47:51;;;;;;;4.13;2.20;;;15.70;99.90;;;16.36;51.69;101624.91;4999940;28;97399;-44
2021/11/08 02:50:21;;;;;;;11.23;4.07;;;15.70;99.90;;;16.35;51.78;101616.97;4978244;27;97102;-44
2021/11/08 02:52:49;;;;;;;4.63;2.70;;;15.60;99.90;;;16.36;51.80;101627.56;5023447;27;97208;-43
2021/11/08 02:55:23;;;;;;;13.33;4.07;;;15.70;99.90;;;16.38;51.86;101627.50;5015578;27;97623;-44
2021/11/08 02:57:52;;;;;;;13.27;5.30;;;15.70;99.90;;;16.41;51.51;101626.47;4997536;27;98127;-43
2021/11/08 03:00:20;;;;;;;7.00;2.97;;;15.80;99.90;;;16.39;51.71;101617.69;4999432;27;96879;-44
2021/11/08 03:02:48;;;;;;;5.53;2.70;;;15.80;99.90;;;16.40;51.86;101619.44;4992368;27;96989;-45
2021/11/08 03:05:16;;;;;;;6.40;2.70;;;15.80;99.90;;;16.40;51.60;101619.44;5003002;27;100103;-45
2021/11/08 03:07:43;;;;;;;10.67;4.10;;;15.80;99.90;;;16.41;51.25;101622.00;4995584;27;99698;-43
2021/11/08 03:10:20;;;;;;;10.83;4.00;;;15.90;99.60;;;16.42;51.50;101623.75;4993714;27;97560;-45
2021/11/08 03:12:47;;;;;;;6.60;2.73;;;15.80;99.90;;;16.42;51.71;101622.88;4997016;27;96857;-44
2021/11/08 03:15:46;;;;;;;5.40;2.40;;;15.80;99.90;;;16.44;51.45;101626.34;4990576;28;98044;-45
2021/11/08 03:18:03;;;;;;;4.50;2.30;;;15.90;99.90;;;16.45;51.69;101620.94;4988801;27;97801;-44
2021/11/08 03:20:30;;;;;;;5.87;2.60;;;15.90;99.90;;;16.44;51.50;101624.53;4997919;28;97619;-45
2021/11/08 03:23:00;;;;;;;17.63;5.70;;;15.90;99.90;;;16.44;51.49;101637.00;4998215;27;96938;-49
2021/11/08 03:28:04;;;;;;;4.83;2.60;;;15.80;99.90;;;16.44;51.55;101642.31;5002076;27;96953;-43
2021/11/08 03:30:36;;;;;;;5.00;2.00;;;15.80;99.90;;;16.45;51.68;101638.72;4996282;28;98205;-42
2021/11/08 03:33:04;;;;;;;4.03;2.17;;;15.90;99.90;;;16.43;51.77;101641.44;4995546;27;96722;-45
2021/11/08 03:35:31;;;;;;;3.83;2.53;;;15.80;99.90;;;16.46;51.83;101630.66;4993496;28;100429;-42
2021/11/08 03:37:59;;;;;;;6.67;2.50;;;15.90;99.90;;;16.48;51.65;101634.09;4996307;27;97298;-50
2021/11/08 03:40:30;;;;;;;4.40;2.07;;;15.90;99.90;;;16.49;51.45;101635.88;4993842;27;96949;-44
2021/11/08 03:42:57;;;;;;;7.07;3.03;;;15.90;99.90;;;16.48;51.72;101620.78;5002267;27;96606;-47
2021/11/08 03:45:25;;;;;;;5.10;2.10;;;15.90;99.90;;;16.47;51.48;101624.38;4998104;28;98711;-43
2021/11/08 03:47:54;;;;;;;5.57;2.67;;;15.90;99.90;;;16.50;51.75;101636.72;5004158;27;97234;-43
2021/11/08 03:50:24;;;;;;;3.53;2.17;;;15.90;99.90;;;16.49;51.86;101637.63;5000130;27;97540;-45
2021/11/08 03:52:50;;;;;;;13.20;4.33;;;15.80;99.90;;;16.47;51.52;101637.72;5000787;27;96794;-47
2021/11/08 03:55:17;;;;;;;4.57;1.93;;;15.90;99.90;;;16.47;51.70;101648.38;5000812;27;104992;-44
2021/11/08 03:57:43;;;;;;;7.03;2.87;;;15.80;99.90;;;16.46;51.72;101648.44;4997200;27;97154;-44
2021/11/08 04:00:14;;;;;;;5.57;2.70;;;15.90;99.90;;;16.47;51.64;101658.16;4994740;27;96746;-45
2021/11/08 04:02:45;;;;;;;6.47;2.77;;;15.80;99.90;;;16.49;51.54;101661.59;5010224;27;97309;-43
2021/11/08 04:05:14;;;;;;;3.90;2.53;;;15.90;99.90;;;16.48;51.65;101655.41;5003435;27;98801;-43
2021/11/08 04:07:41;;;;;;;4.07;2.03;;;15.80;99.90;;;16.47;51.76;101658.16;4991312;28;97982;-46
2021/11/08 04:10:10;;;;;;;3.43;2.07;;;15.80;99.90;;;16.49;51.69;101666.94;4993239;28;102116;-43
2021/11/08 04:12:37;;;;;;;4.83;2.67;;;15.90;99.90;;;16.49;51.69;101661.59;4996368;27;96813;-44
2021/11/08 04:15:08;;;;;;;2.80;1.90;;;15.90;99.90;;;16.50;51.81;101668.69;4989684;27;98349;-46
2021/11/08 04:17:35;;;;;;;8.37;3.23;;;15.80;99.90;;;16.53;51.79;101668.56;4994351;28;99486;-45
2021/11/08 04:20:03;;;;;;;4.77;2.60;;;15.90;99.90;;;16.49;51.68;101661.59;4991175;27;96835;-43
2021/11/08 04:22:28;;;;;;;2.63;1.60;;;15.80;99.90;;;16.47;52.12;101663.47;5007383;28;96606;-47
2021/11/08 04:24:54;;;;;;;4.90;2.50;;;15.80;99.90;;;16.49;51.84;101672.25;4994614;27;97665;-43
2021/11/08 04:27:20;;;;;;;6.53;2.53;;;15.90;99.90;;;16.46;51.87;101661.75;5000723;28;99446;-43
2021/11/08 04:29:47;;;;;;;4.33;2.20;;;15.80;99.90;;;16.44;51.93;101663.63;5008672;27;96967;-43
2021/11/08 04:32:12;;;;;;;4.33;1.97;;;15.70;99.90;;;16.46;52.04;101661.75;4992142;27;98365;-46
2021/11/08 04:37:49;;;;;;;5.07;2.27;;;15.80;99.90;;;16.49;51.80;101651.84;4991451;27;97276;-43
2021/11/08 04:42:33;;;;;;;6.77;2.40;;;15.90;99.90;;;16.47;51.60;101653.69;4993742;27;97211;-44
2021/11/08 04:45:30;;;;;;;13.13;4.50;;;15.90;99.90;;;16.44;51.77;101661.81;4994484;28;97265;-44
2021/11/08 04:55:40;;;;;;;5.67;2.80;;;15.70;99.90;;;16.33;52.14;101662.28;5001796;27;97081;-44
2021/11/08 05:28:39;;;;;;;6.97;2.57;;;15.40;99.90;;;16.16;52.75;101685.25;4995513;27;97292;-42
2021/11/08 05:30:34;;;;;;;12.83;4.67;;;15.40;99.90;;;16.16;52.71;101683.44;4974658;27;99597;-43
2021/11/08 05:33:01;;;;;;;15.40;3.90;;;15.50;99.90;;;16.17;52.78;101682.50;5001540;27;97156;-46
2021/11/08 05:35:28;;;;;;;4.43;2.17;;;15.50;99.90;;;16.20;52.80;101684.19;4985187;28;97174;-43
2021/11/08 05:37:56;;;;;;;4.80;2.73;;;15.50;99.90;;;16.21;52.57;101684.13;4998158;27;102091;-43
2021/11/08 05:40:30;;;;;;;5.20;2.50;;;15.50;99.90;;;16.21;52.78;101692.13;4996227;27;99825;-42
2021/11/08 05:42:56;;;;;;;4.80;2.20;;;15.60;99.90;;;16.25;52.65;101684.88;4980979;27;96988;-49
2021/11/08 05:45:23;;;;;;;5.13;2.53;;;15.60;99.90;;;16.26;52.53;101692.78;4998047;27;97037;-44
2021/11/08 05:47:49;;;;;;;6.57;2.77;;;15.60;99.90;;;16.28;52.59;101696.25;4998288;27;97775;-44
2021/11/08 05:50:18;;;;;;;7.23;2.80;;;15.60;99.90;;;16.31;52.61;101705.88;4994036;27;99925;-44
2021/11/08 05:52:49;;;;;;;6.40;3.13;;;15.60;99.90;;;16.34;52.34;101711.94;5000141;27;97304;-42
2021/11/08 05:55:15;;;;;;;5.07;2.27;;;15.70;99.90;;;16.39;52.19;101708.22;4993383;27;97001;-45
2021/11/08 05:57:51;;;;;;;8.53;3.03;;;15.80;99.90;;;16.44;52.25;101716.88;5000117;27;96855;-45
2021/11/08 06:50:04;;;;;;;6.27;3.30;;;15.60;99.90;;;16.30;52.47;101763.59;4993756;27;96996;-43
2021/11/08 06:52:31;;;;;;;7.97;3.63;;;15.60;99.90;;;16.33;52.58;101762.59;4996718;28;99712;-42
2021/11/08 06:55:02;;;;;;;6.47;2.63;;;15.70;99.90;;;16.35;52.44;101766.09;4995036;28;97176;-49
2021/11/08 06:57:42;;;;;;;4.40;2.70;;;15.70;99.90;;;16.36;52.44;101758.03;4996028;28;96895;-44
2021/11/08 07:00:09;;;;;;;8.00;2.90;;;15.70;99.90;;;16.39;52.23;101772.13;4998135;27;97897;-43
2021/11/08 07:02:35;;;;;;;8.47;3.03;;;15.70;99.90;;;16.41;52.37;101762.28;5008013;27;97421;-44
2021/11/08 07:05:01;;;;;;;8.57;3.50;;;15.80;99.90;;;16.45;52.32;101766.53;4991842;27;98940;-48
2021/11/08 07:07:26;;;;;;;6.07;2.70;;;15.80;99.90;;;16.47;52.28;101772.66;5011650;28;97142;-43
2021/11/08 07:09:52;;;;;;;9.00;3.73;;;15.90;99.90;;;16.48;52.17;101771.72;4996993;27;97103;-45
2021/11/08 07:12:18;;;;;;;6.13;3.03;;;15.90;99.90;;;16.49;52.00;101770.78;5011413;27;99156;-43
2021/11/08 07:14:44;;;;;;;5.73;3.30;;;15.90;99.90;;;16.49;52.19;101771.69;4991755;28;97723;-44
2021/11/08 07:17:10;;;;;;;8.77;3.37;;;15.90;99.90;;;16.52;51.83;101776.88;4994242;27;96758;-43
2021/11/08 07:19:36;;;;;;;13.73;5.80;;;15.90;99.90;;;16.53;51.84;101780.41;4995565;28;98418;-43
2021/11/08 07:22:02;;;;;;;10.53;3.97;;;15.90;99.90;;;16.52;52.00;101784.00;4990991;27;97583;-45
2021/11/08 07:24:28;;;;;;;5.63;2.60;;;15.90;99.90;;;16.53;51.91;101785.75;5028108;27;97226;-42
2021/11/08 07:26:54;;;;;;;9.37;3.77;;;15.90;99.90;;;16.55;51.88;101790.06;4995921;28;98559;-42
2021/11/08 07:29:22;;;;;;;13.23;5.17;;;16.00;99.90;;;16.54;51.62;101798.13;4995700;27;97685;-43
2021/11/08 07:31:48;;;;;;;6.40;2.97;;;15.90;99.90;;;16.52;52.22;101789.34;4992413;28;97611;-43
2021/11/08 07:34:14;;;;;;;7.20;3.60;;;15.80;99.90;;;16.57;52.21;101796.19;4987770;27;99035;-48
2021/11/08 07:36:40;;;;;;;5.57;2.73;;;15.90;99.90;;;16.60;52.03;101797.84;4985779;28;97280;-42
2021/11/08 07:39:07;;;;;;;5.57;2.47;;;16.00;99.90;;;16.76;51.68;101793.63;4989363;27;97220;-44
2021/11/08 07:41:33;;;;;;;6.07;2.93;;;16.30;99.90;;;16.88;51.25;101803.75;5010523;27;100161;-43
2021/11/08 07:43:59;;;;;;;4.13;2.27;;;16.50;99.90;;;16.95;50.88;101802.56;4984989;27;99318;-42
2021/11/08 07:46:25;;;;;;;7.53;2.67;;;16.70;99.90;;;16.99;50.87;101810.41;4996795;28;97026;-43
2021/11/08 07:48:52;;;;;;;7.40;2.90;;;16.70;99.60;;;17.03;50.96;101804.00;4992802;27;96906;-43
2021/11/08 07:51:19;;;;;;;10.10;4.70;;;16.70;99.60;;;17.03;50.82;101812.00;4990030;27;97064;-44
2021/11/08 07:53:47;;;;;;;9.57;4.27;;;16.60;99.80;;;16.99;50.79;101813.94;4995204;27;97255;-45
2021/11/08 07:56:13;;;;;;;11.73;4.67;;;16.50;99.70;;;16.97;50.99;101822.94;4990158;27;97370;-44
2021/11/08 07:58:40;;;;;;;5.50;2.77;;;16.40;99.80;;;16.96;50.78;101822.09;4990412;28;97100;-44
2021/11/08 08:01:07;;;;;;;4.73;2.87;;;16.40;99.90;;;16.99;51.06;101826.41;4992608;27;98912;-43
2021/11/08 08:03:33;;;;;;;4.87;2.87;;;16.50;99.90;;;17.02;51.02;101816.47;5001781;27;98237;-43
2021/11/08 08:06:02;;;;;;;6.80;2.77;;;16.60;99.90;;;17.11;50.60;101820.53;4992128;27;97018;-43
2021/11/08 08:08:28;;;;;;;6.40;2.53;;;16.70;99.90;;;17.16;50.44;101834.53;4996608;28;97665;-42
2021/11/08 08:10:54;;;;;;;5.23;2.63;;;16.80;99.70;;;17.21;50.35;101829.84;5021846;27;100453;-42
2021/11/08 08:13:25;;;;;;;5.80;3.20;;;16.90;99.60;;;17.25;50.14;101834.13;4994978;27;98501;-45
2021/11/08 08:15:54;;;;;;;5.57;2.90;;;17.00;99.10;;;17.28;50.07;101844.66;5011574;27;96976;-44
2021/11/08 08:18:20;;;;;;;5.00;3.03;;;17.00;99.30;;;17.31;50.39;101840.97;4990305;28;97344;-43
2021/11/08 08:20:46;;;;;;;7.13;2.80;;;17.00;99.40;;;17.32;50.35;101846.22;5023875;27;97354;-45
2021/11/08 08:23:12;;;;;;;6.37;2.73;;;17.10;99.20;;;17.33;49.99;101842.63;4992190;27;98011;-43
2021/11/08 08:25:38;;;;;;;8.70;3.30;;;17.10;99.20;;;17.35;50.07;101846.09;4992609;28;96748;-42
2021/11/08 08:28:04;;;;;;;5.80;2.57;;;17.00;98.90;;;17.32;50.08;101840.03;4991240;27;101220;-43
2021/11/08 08:30:30;;;;;;;5.60;2.80;;;17.00;99.10;;;17.33;49.97;101842.63;4995004;28;98483;-47
2021/11/08 08:32:56;;;;;;;8.30;3.90;;;17.00;99.30;;;17.30;49.98;101841.91;5024872;27;96961;-48
2021/11/08 08:35:22;;;;;;;5.13;2.80;;;16.90;98.90;;;17.26;50.46;101841.19;4985183;28;97020;-43
2021/11/08 08:37:48;;;;;;;9.37;3.63;;;16.80;99.40;;;17.24;50.19;101840.38;5008706;27;98228;-43
2021/11/08 08:40:15;;;;;;;7.80;3.83;;;16.80;99.60;;;17.19;50.28;101845.91;4988499;27;99773;-43
2021/11/08 08:42:41;;;;;;;9.17;4.03;;;16.70;99.40;;;17.14;50.52;101844.38;4997309;27;97532;-43
2021/11/08 08:45:09;;;;;;;17.90;6.80;;;16.60;99.70;;;17.07;50.49;101846.47;4993058;27;96934;-44
2021/11/08 08:47:36;;;;;;;6.53;2.93;;;16.50;99.70;;;17.03;50.79;101838.66;5011880;27;97478;-43
2021/11/08 08:50:05;;;;;;;15.03;7.17;;;16.50;99.90;;;17.03;50.67;101849.31;4991656;27;98996;-43
2021/11/08 08:52:31;;;;;;;18.10;7.37;;;16.50;99.80;;;17.01;50.86;101845.88;4996259;28;97606;-44
2021/11/08 08:54:57;;;;;;;22.87;7.97;;;16.50;99.70;;;17.01;50.77;101856.53;5006474;27;97392;-48
2021/11/08 08:57:23;;;;;;;21.83;7.90;;;16.60;99.60;;;17.03;50.57;101854.66;4982741;28;96970;-42
2021/11/08 08:59:52;;;;;;;10.27;4.33;;;16.60;99.60;;;16.99;50.86;101856.59;4992825;27;98533;-43
2021/11/08 09:02:18;;;;;;;21.37;7.40;;;16.60;98.90;;;16.97;50.79;101870.94;4992141;27;98617;-43
2021/11/08 09:04:44;;;;;;;23.43;8.20;;;16.50;98.90;;;16.90;50.90;101879.16;4979755;28;110567;-44
2021/11/08 09:07:10;;;;;;;21.37;8.77;;;16.40;99.80;;;16.89;50.95;101877.44;4993478;27;97050;-42
2021/11/08 09:09:37;;;;;;;23.83;8.43;;;16.40;99.20;;;16.83;51.06;101875.03;4995236;28;98002;-45
2021/11/08 09:12:05;;;;;;;28.20;10.03;;;16.30;99.10;;;15.15;51.25;101876.22;4995850;28;99391;-46
2021/11/08 09:14:32;;;;;;;23.70;7.73;;;14.70;99.90;;;15.61;54.31;101885.19;5001894;27;97314;-46
2021/11/08 09:17:01;;;;;;;24.50;8.57;;;15.00;99.90;;;15.79;53.64;101889.00;5005082;27;102520;-43
2021/11/08 09:19:28;;;;;;;17.80;6.50;;;15.20;99.90;;;15.98;53.45;101889.16;5006824;28;102943;-45
2021/11/08 09:21:54;;;;;;;23.47;7.37;;;15.50;99.90;;;16.06;51.51;101892.38;5009907;27;100323;-44
2021/11/08 09:24:22;;;;;;;21.50;8.73;;;15.60;99.90;;;16.15;52.73;101889.34;5005012;27;97259;-43
2021/11/08 09:26:50;;;;;;;16.30;6.77;;;15.60;99.90;;;16.25;52.88;101896.06;5011847;27;96631;-43
2021/11/08 09:29:20;;;;;;;14.70;5.03;;;15.70;99.90;;;16.38;52.42;101892.91;4996018;28;96891;-43
2021/11/08 09:31:48;;;;;;;22.40;8.07;;;15.90;99.90;;;16.46;51.75;101888.13;5001471;27;98999;-43
2021/11/08 09:34:16;;;;;;;14.73;6.67;;;16.10;99.80;;;16.50;51.11;101893.28;4993748;27;97879;-45
2021/11/08 09:36:44;;;;;;;11.33;4.27;;;16.10;99.80;;;16.53;52.14;101894.94;5001315;28;97099;-45
2021/11/08 09:39:33;;;;;;;24.87;8.17;;;16.00;99.90;;;16.53;50.61;101897.59;4990639;27;99964;-43
2021/11/08 09:42:05;;;;;;;27.67;8.70;;;16.00;99.60;;;16.57;51.58;101900.06;5009048;27;97648;-44
2021/11/08 09:44:31;;;;;;;19.43;7.87;;;16.00;99.60;;;16.60;51.59;101893.75;4998299;28;97495;-43
2021/11/08 09:46:58;;;;;;;21.83;7.83;;;16.10;99.90;;;16.67;51.58;101889.94;5004550;27;106632;-49
2021/11/08 09:49:25;;;;;;;19.90;7.40;;;16.20;99.70;;;16.66;51.04;101893.50;4988702;28;104232;-43
2021/11/08 09:51:52;;;;;;;24.93;9.27;;;16.20;99.10;;;16.58;48.66;101895.59;4997438;28;98343;-46
2021/11/08 09:54:27;;;;;;;26.17;9.53;;;16.20;98.50;;;16.59;51.32;101898.22;5007298;27;97467;-43
2021/11/08 09:56:54;;;;;;;24.43;8.73;;;16.10;99.40;;;16.54;50.80;101894.00;5025403;27;96909;-43
2021/11/08 09:59:21;;;;;;;27.43;9.23;;;16.10;98.70;;;16.50;51.49;101892.41;4991794;27;97220;-43
2021/11/08 10:01:51;;;;;;;25.87;8.73;;;16.00;99.50;;;16.51;51.90;101902.13;4998264;27;97167;-44
2021/11/08 10:04:20;;;;;;;25.07;8.43;;;16.00;99.90;;;16.51;51.67;101905.66;4991202;28;97555;-43
2021/11/08 10:06:48;;;;;;;20.33;8.43;;;16.00;99.90;;;16.54;51.42;101899.34;4994822;28;97125;-44
2021/11/08 10:09:19;;;;;;;31.87;9.27;;;16.10;99.90;;;16.57;51.43;101888.56;4997645;27;97026;-45
2021/11/08 10:11:49;;;;;;;19.27;8.00;;;16.10;99.90;;;16.60;51.78;101888.41;4994010;27;98167;-46
2021/11/08 10:14:16;;;;;;;24.43;9.50;;;16.20;99.90;;;16.68;51.19;101897.00;4990355;27;97405;-46
2021/11/08 10:16:46;;;;;;;14.37;5.37;;;16.30;99.70;;;16.72;51.06;101889.75;4993682;28;97494;-46
2021/11/08 10:19:21;;;;;;;19.07;8.53;;;16.40;99.20;;;16.77;51.30;101891.28;4995784;27;98785;-44
2021/11/08 10:21:55;;;;;;;22.60;7.97;;;16.40;99.90;;;16.83;50.88;101891.03;4998275;27;97576;-43
2021/11/08 10:24:30;;;;;;;20.53;7.30;;;16.50;99.80;;;16.92;51.00;101889.75;5024691;27;97405;-42
2021/11/08 10:27:00;;;;;;;13.97;5.27;;;16.60;99.10;;;16.90;50.92;101887.16;4998845;27;97080;-43
2021/11/08 10:29:26;;;;;;;21.70;8.20;;;16.60;98.90;;;16.98;50.75;101886.84;4991789;27;102735;-45
2021/11/08 10:32:04;;;;;;;7.70;4.00;;;16.70;99.50;;;17.09;50.35;101875.72;5021229;27;98103;-44
2021/11/08 10:34:30;;;;;;;27.03;9.83;;;16.80;99.50;;;17.11;49.83;101879.19;4999010;28;97417;-48
2021/11/08 10:37:08;;;;;;;25.47;9.97;;;16.90;98.60;;;17.08;49.90;101879.34;5004732;27;96973;-43
2021/11/08 10:39:37;;;;;;;23.53;8.13;;;16.80;97.80;;;17.07;49.85;101872.25;5008876;27;101852;-44
2021/11/08 10:42:05;;;;;;;26.67;9.60;;;16.80;98.10;;;17.01;50.25;101884.03;5013597;27;99997;-43
2021/11/08 10:44:32;;;;;;;25.60;9.23;;;16.70;98.80;;;16.99;48.59;101882.38;4996042;28;97128;-44
2021/11/08 10:47:06;;;;;;;24.13;9.07;;;16.70;97.60;;;16.77;48.50;101885.94;4999782;27;98333;-48
2021/11/08 10:49:42;;;;;;;26.13;10.03;;;16.40;97.40;;;16.82;50.94;101888.44;5007760;27;96993;-43
2021/11/08 10:52:14;;;;;;;25.50;7.97;;;16.40;99.60;;;16.78;50.19;101887.72;5017204;27;98741;-48
2021/11/08 10:54:53;;;;;;;19.83;6.67;;;16.50;98.50;;;16.79;49.93;101892.09;4992323;28;97016;-45
2021/11/08 10:57:23;;;;;;;8.67;3.90;;;16.50;98.30;;;16.83;50.68;101885.72;4995669;27;97622;-45
2021/11/08 10:59:53;;;;;;;25.73;9.03;;;16.50;99.30;;;16.91;50.97;101894.22;4998667;27;98274;-45
2021/11/08 11:02:24;;;;;;;24.10;8.73;;;16.60;99.50;;;17.05;50.51;101884.78;5006816;27;99980;-44
2021/11/08 11:04:58;;;;;;;25.17;8.70;;;16.80;99.00;;;17.05;50.26;101885.63;5007379;27;97497;-43
2021/11/08 11:07:28;;;;;;;25.03;8.60;;;16.80;98.80;;;17.09;50.43;101881.06;4991970;28;97591;-42
2021/11/08 11:10:19;;;;;;;23.90;8.67;;;16.80;98.40;;;16.90;49.29;101894.28;5004902;27;96899;-43
2021/11/08 11:12:49;;;;;;;24.97;7.90;;;16.60;97.50;;;16.92;50.31;101893.31;4991310;28;101983;-44
2021/11/08 11:15:27;;;;;;;22.10;8.50;;;16.60;98.50;;;16.98;50.72;101883.31;5003952;27;97379;-44
2021/11/08 11:17:59;;;;;;;26.80;8.60;;;16.60;99.40;;;16.91;50.37;101872.91;4996266;28;99717;-43
2021/11/08 11:20:36;;;;;;;28.70;8.57;;;16.60;99.10;;;16.86;49.08;101874.91;5001772;28;103584;-43
2021/11/08 11:23:17;;;;;;;19.33;6.67;;;16.70;97.70;;;17.03;49.98;101870.66;4988201;27;98633;-43
2021/11/08 11:25:52;;;;;;;24.00;7.70;;;16.90;98.80;;;17.15;49.94;101864.78;4997613;27;97431;-43
2021/11/08 11:28:34;;;;;;;12.53;5.37;;;17.00;98.50;;;17.19;50.05;101867.25;4989428;27;99058;-46
2021/11/08 11:31:12;;;;;;;28.73;8.73;;;17.00;98.20;;;17.13;48.76;101869.31;5007701;27;97974;-45
2021/11/08 11:33:38;;;;;;;24.77;8.33;;;17.00;97.40;;;17.13;49.71;101875.53;4993552;27;97237;-43
2021/11/08 11:36:17;;;;;;;25.13;8.97;;;16.90;98.80;;;17.13;48.68;101877.31;4994924;27;96827;-43
2021/11/08 11:38:52;;;;;;;21.33;8.10;;;16.90;97.00;;;17.12;49.80;101875.59;4993207;28;97373;-45
2021/11/08 11:41:29;;;;;;;24.27;8.20;;;16.90;98.60;;;17.00;49.90;101881.44;4998001;28;100767;-43
2021/11/08 11:44:05;;;;;;;21.57;8.83;;;16.70;97.80;;;16.98;50.08;101867.31;4991768;28;96832;-44
2021/11/08 11:46:36;;;;;;;22.40;8.07;;;16.60;98.10;;;16.81;49.60;101870.72;5015712;27;97414;-43
2021/11/08 11:49:03;;;;;;;25.90;8.50;;;16.50;98.10;;;16.63;48.61;101877.63;4997154;27;97096;-45
2021/11/08 11:51:34;;;;;;;16.73;5.80;;;16.30;98.10;;;16.60;51.27;101872.44;4996687;27;97609;-45
2021/11/08 11:54:01;;;;;;;22.97;7.10;;;16.20;99.40;;;16.63;51.18;101870.50;4984230;28;97366;-47
2021/11/08 11:56:31;;;;;;;22.30;8.30;;;16.20;99.60;;;16.76;50.99;101864.69;4994445;28;96936;-43
2021/11/08 11:59:00;;;;;;;21.83;7.80;;;16.40;99.30;;;16.87;50.77;101870.44;4998813;27;97034;-44